Terminal Aerodrome Forecast
Issued by NWS Lake Charles, LA

Home | Current Version | Previous Version | Text Only | Print | Product List | Glossary On
Versions: 1 2 3 4 5 6 7 8 9 10 11 12 13 14 15 16 17 18 19
000
FTUS44 KLCH 301134
TAFBPT
TAF
KBPT 301134Z 3012/3112 15005KT P6SM SCT025 SCT250
      TEMPO 3012/3013 3SM BR FEW014 SCT025
     FM301300 20006KT P6SM SCT025 SCT035
     FM301700 20006KT P6SM VCTS SCT025CB SCT035
      TEMPO 3018/3022 2SM TSRA BKN015CB
     FM310200 VRB03KT P6SM BKN250=

USA.gov is the U.S. government's official web portal to all federal, state and local government web resources and services.